sensor_id;sensor_type;location;lat;lon;timestamp;P1;durP1;ratioP1;P2;durP2;ratioP2
72095;SDS011;59968;51.084;16.748;2022-10-04T00:01:08;7.40;;;1.40;;
72095;SDS011;59968;51.084;16.748;2022-10-04T00:03:40;6.20;;;1.50;;
72095;SDS011;59968;51.084;16.748;2022-10-04T00:06:20;5.20;;;1.30;;
72095;SDS011;59968;51.084;16.748;2022-10-04T00:11:34;2.20;;;0.80;;
72095;SDS011;59968;51.084;16.748;2022-10-04T00:14:06;8.60;;;1.50;;
72095;SDS011;59968;51.084;16.748;2022-10-04T00:16:41;4.50;;;1.20;;
72095;SDS011;59968;51.084;16.748;2022-10-04T00:22:28;5.30;;;1.00;;
72095;SDS011;59968;51.084;16.748;2022-10-04T00:24:37;2.60;;;1.20;;
72095;SDS011;59968;51.084;16.748;2022-10-04T00:27:26;8.10;;;1.30;;
72095;SDS011;59968;51.084;16.748;2022-10-04T00:32:30;3.90;;;1.10;;
72095;SDS011;59968;51.084;16.748;2022-10-04T00:40:34;4.90;;;1.30;;
72095;SDS011;59968;51.084;16.748;2022-10-04T00:46:12;9.90;;;1.50;;
72095;SDS011;59968;51.084;16.748;2022-10-04T00:48:46;6.60;;;1.40;;
72095;SDS011;59968;51.084;16.748;2022-10-04T00:51:24;4.30;;;1.30;;
72095;SDS011;59968;51.084;16.748;2022-10-04T00:54:32;3.20;;;1.10;;
72095;SDS011;59968;51.084;16.748;2022-10-04T00:57:20;5.70;;;1.40;;
72095;SDS011;59968;51.084;16.748;2022-10-04T01:05:14;8.40;;;1.70;;
72095;SDS011;59968;51.084;16.748;2022-10-04T01:08:21;2.60;;;0.80;;
72095;SDS011;59968;51.084;16.748;2022-10-04T01:11:02;4.20;;;1.20;;
72095;SDS011;59968;51.084;16.748;2022-10-04T01:13:41;4.20;;;1.20;;
72095;SDS011;59968;51.084;16.748;2022-10-04T01:16:23;5.70;;;1.90;;
72095;SDS011;59968;51.084;16.748;2022-10-04T01:18:54;3.90;;;1.20;;
72095;SDS011;59968;51.084;16.748;2022-10-04T01:24:32;2.90;;;1.10;;
72095;SDS011;59968;51.084;16.748;2022-10-04T01:27:03;5.40;;;1.40;;
72095;SDS011;59968;51.084;16.748;2022-10-04T01:29:51;5.80;;;1.40;;
72095;SDS011;59968;51.084;16.748;2022-10-04T01:32:19;4.60;;;0.90;;
72095;SDS011;59968;51.084;16.748;2022-10-04T01:34:48;6.00;;;1.20;;
72095;SDS011;59968;51.084;16.748;2022-10-04T01:37:16;5.60;;;1.50;;
72095;SDS011;59968;51.084;16.748;2022-10-04T01:39:45;4.50;;;1.10;;
72095;SDS011;59968;51.084;16.748;2022-10-04T01:42:22;4.30;;;1.20;;
72095;SDS011;59968;51.084;16.748;2022-10-04T01:44:57;5.90;;;1.50;;
72095;SDS011;59968;51.084;16.748;2022-10-04T01:47:44;3.70;;;1.30;;
72095;SDS011;59968;51.084;16.748;2022-10-04T01:50:19;4.80;;;1.40;;
72095;SDS011;59968;51.084;16.748;2022-10-04T01:52:57;4.60;;;1.30;;
72095;SDS011;59968;51.084;16.748;2022-10-04T01:55:35;6.70;;;1.60;;
72095;SDS011;59968;51.084;16.748;2022-10-04T01:58:21;6.20;;;1.80;;
72095;SDS011;59968;51.084;16.748;2022-10-04T02:01:04;4.70;;;1.50;;
72095;SDS011;59968;51.084;16.748;2022-10-04T02:03:42;4.40;;;1.70;;
72095;SDS011;59968;51.084;16.748;2022-10-04T02:06:18;5.00;;;1.60;;
72095;SDS011;59968;51.084;16.748;2022-10-04T02:08:48;6.00;;;1.40;;
72095;SDS011;59968;51.084;16.748;2022-10-04T02:11:19;6.50;;;1.20;;
72095;SDS011;59968;51.084;16.748;2022-10-04T02:13:49;8.00;;;1.60;;
72095;SDS011;59968;51.084;16.748;2022-10-04T02:16:20;2.00;;;1.00;;
72095;SDS011;59968;51.084;16.748;2022-10-04T02:18:49;2.60;;;1.10;;
72095;SDS011;59968;51.084;16.748;2022-10-04T02:21:18;4.40;;;1.20;;
72095;SDS011;59968;51.084;16.748;2022-10-04T02:23:48;4.90;;;1.50;;
72095;SDS011;59968;51.084;16.748;2022-10-04T02:26:19;3.90;;;1.30;;
72095;SDS011;59968;51.084;16.748;2022-10-04T02:28:48;3.00;;;1.00;;
72095;SDS011;59968;51.084;16.748;2022-10-04T02:31:18;5.30;;;1.90;;
72095;SDS011;59968;51.084;16.748;2022-10-04T02:34:10;4.60;;;1.60;;
72095;SDS011;59968;51.084;16.748;2022-10-04T02:36:39;2.90;;;1.10;;
72095;SDS011;59968;51.084;16.748;2022-10-04T02:39:09;7.20;;;1.50;;
72095;SDS011;59968;51.084;16.748;2022-10-04T02:41:48;5.60;;;1.50;;
72095;SDS011;59968;51.084;16.748;2022-10-04T02:44:23;3.40;;;1.10;;
72095;SDS011;59968;51.084;16.748;2022-10-04T02:47:15;4.60;;;1.30;;
72095;SDS011;59968;51.084;16.748;2022-10-04T02:49:51;3.90;;;1.30;;
72095;SDS011;59968;51.084;16.748;2022-10-04T02:52:47;3.80;;;1.10;;
72095;SDS011;59968;51.084;16.748;2022-10-04T02:55:23;5.90;;;1.50;;
72095;SDS011;59968;51.084;16.748;2022-10-04T02:57:54;6.40;;;1.40;;
72095;SDS011;59968;51.084;16.748;2022-10-04T03:00:28;3.40;;;1.40;;
72095;SDS011;59968;51.084;16.748;2022-10-04T03:06:06;2.40;;;1.10;;
72095;SDS011;59968;51.084;16.748;2022-10-04T03:11:14;5.40;;;1.50;;
72095;SDS011;59968;51.084;16.748;2022-10-04T03:13:46;3.10;;;1.10;;
72095;SDS011;59968;51.084;16.748;2022-10-04T03:16:18;4.00;;;1.30;;
72095;SDS011;59968;51.084;16.748;2022-10-04T03:18:47;8.90;;;1.70;;
72095;SDS011;59968;51.084;16.748;2022-10-04T03:21:20;4.70;;;1.40;;
72095;SDS011;59968;51.084;16.748;2022-10-04T03:23:49;4.90;;;1.40;;
72095;SDS011;59968;51.084;16.748;2022-10-04T03:26:26;6.00;;;1.70;;
72095;SDS011;59968;51.084;16.748;2022-10-04T03:28:58;3.50;;;1.40;;
72095;SDS011;59968;51.084;16.748;2022-10-04T03:31:27;4.70;;;1.60;;
72095;SDS011;59968;51.084;16.748;2022-10-04T03:33:56;2.90;;;1.10;;
72095;SDS011;59968;51.084;16.748;2022-10-04T03:36:28;5.20;;;1.60;;
72095;SDS011;59968;51.084;16.748;2022-10-04T03:38:57;4.20;;;2.00;;
72095;SDS011;59968;51.084;16.748;2022-10-04T03:41:25;8.00;;;1.90;;
72095;SDS011;59968;51.084;16.748;2022-10-04T03:43:54;4.20;;;1.50;;
72095;SDS011;59968;51.084;16.748;2022-10-04T03:46:28;2.90;;;1.20;;
72095;SDS011;59968;51.084;16.748;2022-10-04T03:48:56;3.90;;;1.60;;
72095;SDS011;59968;51.084;16.748;2022-10-04T03:51:26;4.20;;;1.70;;
72095;SDS011;59968;51.084;16.748;2022-10-04T03:53:58;6.90;;;1.90;;
72095;SDS011;59968;51.084;16.748;2022-10-04T03:56:30;4.90;;;1.90;;
72095;SDS011;59968;51.084;16.748;2022-10-04T03:59:03;3.40;;;1.40;;
72095;SDS011;59968;51.084;16.748;2022-10-04T04:01:39;5.20;;;1.40;;
72095;SDS011;59968;51.084;16.748;2022-10-04T04:09:51;4.00;;;1.50;;
72095;SDS011;59968;51.084;16.748;2022-10-04T04:15:14;5.50;;;2.00;;
72095;SDS011;59968;51.084;16.748;2022-10-04T04:17:47;6.80;;;1.70;;
72095;SDS011;59968;51.084;16.748;2022-10-04T04:20:26;5.60;;;2.00;;
72095;SDS011;59968;51.084;16.748;2022-10-04T04:23:10;8.30;;;1.90;;
72095;SDS011;59968;51.084;16.748;2022-10-04T04:25:50;15.90;;;2.20;;
72095;SDS011;59968;51.084;16.748;2022-10-04T04:34:14;3.20;;;1.50;;
72095;SDS011;59968;51.084;16.748;2022-10-04T04:36:47;4.00;;;1.50;;
72095;SDS011;59968;51.084;16.748;2022-10-04T04:39:19;5.30;;;1.70;;
72095;SDS011;59968;51.084;16.748;2022-10-04T04:42:10;5.50;;;2.10;;
72095;SDS011;59968;51.084;16.748;2022-10-04T04:44:49;4.50;;;1.40;;
72095;SDS011;59968;51.084;16.748;2022-10-04T04:47:28;5.50;;;1.90;;
72095;SDS011;59968;51.084;16.748;2022-10-04T04:50:02;3.80;;;2.00;;
72095;SDS011;59968;51.084;16.748;2022-10-04T04:52:37;5.20;;;1.50;;
72095;SDS011;59968;51.084;16.748;2022-10-04T04:55:22;3.80;;;1.10;;
72095;SDS011;59968;51.084;16.748;2022-10-04T04:57:54;3.70;;;1.30;;
72095;SDS011;59968;51.084;16.748;2022-10-04T05:00:28;6.90;;;1.70;;
72095;SDS011;59968;51.084;16.748;2022-10-04T05:03:00;5.30;;;1.50;;
72095;SDS011;59968;51.084;16.748;2022-10-04T05:05:31;4.50;;;1.30;;
72095;SDS011;59968;51.084;16.748;2022-10-04T05:08:17;4.30;;;1.40;;
72095;SDS011;59968;51.084;16.748;2022-10-04T05:10:54;5.60;;;1.50;;
72095;SDS011;59968;51.084;16.748;2022-10-04T05:16:46;4.40;;;1.50;;
72095;SDS011;59968;51.084;16.748;2022-10-04T05:22:08;7.80;;;1.70;;
72095;SDS011;59968;51.084;16.748;2022-10-04T05:24:39;6.90;;;1.50;;
72095;SDS011;59968;51.084;16.748;2022-10-04T05:27:13;7.80;;;1.90;;
72095;SDS011;59968;51.084;16.748;2022-10-04T05:29:50;6.30;;;2.00;;
72095;SDS011;59968;51.084;16.748;2022-10-04T05:32:26;3.20;;;1.00;;
72095;SDS011;59968;51.084;16.748;2022-10-04T05:35:00;5.70;;;1.30;;
72095;SDS011;59968;51.084;16.748;2022-10-04T05:37:49;5.90;;;1.90;;
72095;SDS011;59968;51.084;16.748;2022-10-04T05:46:05;3.90;;;1.30;;
72095;SDS011;59968;51.084;16.748;2022-10-04T05:48:47;4.80;;;1.20;;
72095;SDS011;59968;51.084;16.748;2022-10-04T05:51:47;6.20;;;1.80;;
72095;SDS011;59968;51.084;16.748;2022-10-04T05:54:18;6.60;;;1.60;;
72095;SDS011;59968;51.084;16.748;2022-10-04T06:04:43;2.60;;;0.90;;
72095;SDS011;59968;51.084;16.748;2022-10-04T06:22:04;3.80;;;1.10;;
72095;SDS011;59968;51.084;16.748;2022-10-04T06:24:41;2.50;;;0.90;;
72095;SDS011;59968;51.084;16.748;2022-10-04T06:27:21;8.50;;;1.80;;
72095;SDS011;59968;51.084;16.748;2022-10-04T06:30:14;8.60;;;1.80;;
72095;SDS011;59968;51.084;16.748;2022-10-04T06:36:09;4.20;;;1.20;;
72095;SDS011;59968;51.084;16.748;2022-10-04T06:38:51;7.00;;;1.70;;
72095;SDS011;59968;51.084;16.748;2022-10-04T06:55:47;4.20;;;1.30;;
72095;SDS011;59968;51.084;16.748;2022-10-04T07:04:17;5.70;;;1.30;;
72095;SDS011;59968;51.084;16.748;2022-10-04T07:07:48;5.10;;;1.40;;
72095;SDS011;59968;51.084;16.748;2022-10-04T07:15:41;3.80;;;1.10;;
72095;SDS011;59968;51.084;16.748;2022-10-04T07:18:23;3.20;;;1.10;;
72095;SDS011;59968;51.084;16.748;2022-10-04T07:21:14;5.10;;;1.60;;
72095;SDS011;59968;51.084;16.748;2022-10-04T07:23:51;5.60;;;1.50;;
72095;SDS011;59968;51.084;16.748;2022-10-04T07:26:26;2.70;;;1.20;;
72095;SDS011;59968;51.084;16.748;2022-10-04T07:29:02;7.50;;;1.30;;
72095;SDS011;59968;51.084;16.748;2022-10-04T07:32:02;4.70;;;1.40;;
72095;SDS011;59968;51.084;16.748;2022-10-04T07:37:14;7.00;;;1.80;;
72095;SDS011;59968;51.084;16.748;2022-10-04T07:45:17;6.60;;;1.70;;
72095;SDS011;59968;51.084;16.748;2022-10-04T07:48:03;5.50;;;1.10;;
72095;SDS011;59968;51.084;16.748;2022-10-04T07:50:34;4.70;;;1.70;;
72095;SDS011;59968;51.084;16.748;2022-10-04T07:53:14;5.40;;;1.20;;
72095;SDS011;59968;51.084;16.748;2022-10-04T07:56:34;4.90;;;1.60;;
72095;SDS011;59968;51.084;16.748;2022-10-04T07:59:20;5.00;;;1.50;;
72095;SDS011;59968;51.084;16.748;2022-10-04T08:10:25;7.10;;;1.60;;
72095;SDS011;59968;51.084;16.748;2022-10-04T08:15:51;4.40;;;1.30;;
72095;SDS011;59968;51.084;16.748;2022-10-04T08:21:15;5.20;;;1.20;;
72095;SDS011;59968;51.084;16.748;2022-10-04T08:29:07;4.10;;;1.40;;
72095;SDS011;59968;51.084;16.748;2022-10-04T08:46:39;5.50;;;1.50;;
72095;SDS011;59968;51.084;16.748;2022-10-04T08:49:36;4.90;;;1.50;;
72095;SDS011;59968;51.084;16.748;2022-10-04T09:00:18;6.50;;;2.00;;
72095;SDS011;59968;51.084;16.748;2022-10-04T09:05:55;3.30;;;1.50;;
72095;SDS011;59968;51.084;16.748;2022-10-04T09:17:05;3.20;;;1.60;;
72095;SDS011;59968;51.084;16.748;2022-10-04T09:22:46;5.60;;;1.60;;
72095;SDS011;59968;51.084;16.748;2022-10-04T09:25:38;4.00;;;1.50;;
72095;SDS011;59968;51.084;16.748;2022-10-04T09:29:31;3.30;;;1.40;;
72095;SDS011;59968;51.084;16.748;2022-10-04T09:31:50;4.20;;;1.50;;
72095;SDS011;59968;51.084;16.748;2022-10-04T09:40:37;2.20;;;1.10;;
72095;SDS011;59968;51.084;16.748;2022-10-04T09:49:28;4.60;;;1.40;;
72095;SDS011;59968;51.084;16.748;2022-10-04T10:09:23;4.70;;;1.30;;
72095;SDS011;59968;51.084;16.748;2022-10-04T10:12:39;4.40;;;1.10;;
72095;SDS011;59968;51.084;16.748;2022-10-04T10:19:11;3.00;;;1.10;;
72095;SDS011;59968;51.084;16.748;2022-10-04T10:21:51;3.50;;;1.30;;
72095;SDS011;59968;51.084;16.748;2022-10-04T10:34:00;4.30;;;1.00;;
72095;SDS011;59968;51.084;16.748;2022-10-04T11:25:56;3.90;;;1.60;;
72095;SDS011;59968;51.084;16.748;2022-10-04T11:37:32;4.00;;;1.20;;
72095;SDS011;59968;51.084;16.748;2022-10-04T11:46:11;4.50;;;1.60;;
72095;SDS011;59968;51.084;16.748;2022-10-04T11:51:32;4.30;;;1.10;;
72095;SDS011;59968;51.084;16.748;2022-10-04T12:05:51;2.60;;;0.90;;
72095;SDS011;59968;51.084;16.748;2022-10-04T12:25:59;2.80;;;1.10;;
72095;SDS011;59968;51.084;16.748;2022-10-04T12:28:50;3.60;;;1.40;;
72095;SDS011;59968;51.084;16.748;2022-10-04T12:31:22;4.70;;;1.20;;
72095;SDS011;59968;51.084;16.748;2022-10-04T13:01:12;2.30;;;1.10;;
72095;SDS011;59968;51.084;16.748;2022-10-04T13:03:58;4.80;;;1.50;;
72095;SDS011;59968;51.084;16.748;2022-10-04T13:09:19;3.40;;;1.40;;
72095;SDS011;59968;51.084;16.748;2022-10-04T13:12:04;1.60;;;1.20;;
72095;SDS011;59968;51.084;16.748;2022-10-04T13:17:31;3.10;;;1.40;;
72095;SDS011;59968;51.084;16.748;2022-10-04T13:20:24;3.00;;;1.10;;
72095;SDS011;59968;51.084;16.748;2022-10-04T13:37:25;3.10;;;1.50;;
72095;SDS011;59968;51.084;16.748;2022-10-04T13:42:36;2.90;;;1.50;;
72095;SDS011;59968;51.084;16.748;2022-10-04T14:45:00;4.60;;;1.40;;
72095;SDS011;59968;51.084;16.748;2022-10-04T14:47:40;2.00;;;1.40;;
72095;SDS011;59968;51.084;16.748;2022-10-04T14:53:33;2.00;;;1.30;;
72095;SDS011;59968;51.084;16.748;2022-10-04T14:56:39;3.10;;;1.20;;
72095;SDS011;59968;51.084;16.748;2022-10-04T15:05:28;3.80;;;1.40;;
72095;SDS011;59968;51.084;16.748;2022-10-04T15:11:01;4.00;;;1.50;;
72095;SDS011;59968;51.084;16.748;2022-10-04T15:16:42;3.80;;;1.40;;
72095;SDS011;59968;51.084;16.748;2022-10-04T15:34:27;4.50;;;1.40;;
72095;SDS011;59968;51.084;16.748;2022-10-04T15:42:28;5.40;;;1.50;;
72095;SDS011;59968;51.084;16.748;2022-10-04T15:50:28;4.70;;;1.60;;
72095;SDS011;59968;51.084;16.748;2022-10-04T16:01:49;4.20;;;1.50;;
72095;SDS011;59968;51.084;16.748;2022-10-04T16:28:11;14.90;;;9.10;;
72095;SDS011;59968;51.084;16.748;2022-10-04T16:39:32;38.90;;;17.90;;
72095;SDS011;59968;51.084;16.748;2022-10-04T16:42:46;23.20;;;11.40;;
72095;SDS011;59968;51.084;16.748;2022-10-04T16:51:12;13.20;;;6.50;;
72095;SDS011;59968;51.084;16.748;2022-10-04T17:16:35;9.60;;;4.80;;
72095;SDS011;59968;51.084;16.748;2022-10-04T17:24:51;10.70;;;4.70;;
72095;SDS011;59968;51.084;16.748;2022-10-04T17:30:27;12.40;;;5.40;;
72095;SDS011;59968;51.084;16.748;2022-10-04T17:48:00;10.00;;;4.60;;
72095;SDS011;59968;51.084;16.748;2022-10-04T17:51:00;11.10;;;4.50;;
72095;SDS011;59968;51.084;16.748;2022-10-04T17:54:12;8.60;;;4.50;;
72095;SDS011;59968;51.084;16.748;2022-10-04T18:00:21;12.50;;;4.80;;
72095;SDS011;59968;51.084;16.748;2022-10-04T18:05:55;9.60;;;4.70;;
72095;SDS011;59968;51.084;16.748;2022-10-04T18:18:28;11.50;;;5.80;;
72095;SDS011;59968;51.084;16.748;2022-10-04T18:23:31;11.90;;;5.80;;
72095;SDS011;59968;51.084;16.748;2022-10-04T18:26:13;12.10;;;6.10;;
72095;SDS011;59968;51.084;16.748;2022-10-04T18:28:55;12.60;;;5.90;;
72095;SDS011;59968;51.084;16.748;2022-10-04T18:31:31;12.90;;;5.70;;
72095;SDS011;59968;51.084;16.748;2022-10-04T18:34:14;14.10;;;5.80;;
72095;SDS011;59968;51.084;16.748;2022-10-04T18:37:02;12.10;;;5.90;;
72095;SDS011;59968;51.084;16.748;2022-10-04T18:46:16;15.70;;;7.00;;
72095;SDS011;59968;51.084;16.748;2022-10-04T18:48:58;14.10;;;7.00;;
72095;SDS011;59968;51.084;16.748;2022-10-04T18:52:06;14.50;;;7.20;;
72095;SDS011;59968;51.084;16.748;2022-10-04T18:58:10;15.40;;;7.30;;
72095;SDS011;59968;51.084;16.748;2022-10-04T19:04:25;14.10;;;7.70;;
72095;SDS011;59968;51.084;16.748;2022-10-04T19:07:10;16.40;;;7.30;;
72095;SDS011;59968;51.084;16.748;2022-10-04T19:16:11;16.50;;;8.40;;
72095;SDS011;59968;51.084;16.748;2022-10-04T19:19:07;16.60;;;9.10;;
72095;SDS011;59968;51.084;16.748;2022-10-04T19:22:27;15.10;;;7.50;;
72095;SDS011;59968;51.084;16.748;2022-10-04T19:26:02;12.90;;;6.70;;
72095;SDS011;59968;51.084;16.748;2022-10-04T19:29:01;12.10;;;6.50;;
72095;SDS011;59968;51.084;16.748;2022-10-04T19:31:59;15.10;;;6.80;;
72095;SDS011;59968;51.084;16.748;2022-10-04T19:41:01;14.20;;;7.40;;
72095;SDS011;59968;51.084;16.748;2022-10-04T19:47:30;18.70;;;8.30;;
72095;SDS011;59968;51.084;16.748;2022-10-04T19:50:35;16.70;;;9.00;;
72095;SDS011;59968;51.084;16.748;2022-10-04T19:55:54;18.20;;;8.70;;
72095;SDS011;59968;51.084;16.748;2022-10-04T19:58:49;21.00;;;9.60;;
72095;SDS011;59968;51.084;16.748;2022-10-04T20:01:49;21.00;;;9.70;;
72095;SDS011;59968;51.084;16.748;2022-10-04T20:04:25;19.40;;;10.40;;
72095;SDS011;59968;51.084;16.748;2022-10-04T20:07:25;20.30;;;9.60;;
72095;SDS011;59968;51.084;16.748;2022-10-04T20:10:22;26.50;;;10.10;;
72095;SDS011;59968;51.084;16.748;2022-10-04T20:15:48;19.80;;;10.20;;
72095;SDS011;59968;51.084;16.748;2022-10-04T20:21:04;18.70;;;9.80;;
72095;SDS011;59968;51.084;16.748;2022-10-04T20:32:59;19.40;;;10.30;;
72095;SDS011;59968;51.084;16.748;2022-10-04T20:35:11;20.70;;;9.70;;
72095;SDS011;59968;51.084;16.748;2022-10-04T20:40:55;16.90;;;8.70;;
72095;SDS011;59968;51.084;16.748;2022-10-04T20:43:25;18.10;;;9.40;;
72095;SDS011;59968;51.084;16.748;2022-10-04T20:45:57;18.10;;;9.30;;
72095;SDS011;59968;51.084;16.748;2022-10-04T20:48:32;18.70;;;9.80;;
72095;SDS011;59968;51.084;16.748;2022-10-04T20:51:07;17.80;;;9.60;;
72095;SDS011;59968;51.084;16.748;2022-10-04T20:53:42;16.20;;;9.50;;
72095;SDS011;59968;51.084;16.748;2022-10-04T20:56:21;19.30;;;9.50;;
72095;SDS011;59968;51.084;16.748;2022-10-04T20:58:58;18.20;;;10.50;;
72095;SDS011;59968;51.084;16.748;2022-10-04T21:01:34;20.40;;;10.60;;
72095;SDS011;59968;51.084;16.748;2022-10-04T21:07:18;19.50;;;9.70;;
72095;SDS011;59968;51.084;16.748;2022-10-04T21:09:52;17.90;;;10.00;;
72095;SDS011;59968;51.084;16.748;2022-10-04T21:12:46;21.50;;;10.60;;
72095;SDS011;59968;51.084;16.748;2022-10-04T21:18:04;17.40;;;9.70;;
72095;SDS011;59968;51.084;16.748;2022-10-04T21:20:40;20.20;;;10.40;;
72095;SDS011;59968;51.084;16.748;2022-10-04T21:23:25;21.40;;;11.20;;
72095;SDS011;59968;51.084;16.748;2022-10-04T21:28:54;22.90;;;11.10;;
72095;SDS011;59968;51.084;16.748;2022-10-04T21:31:27;20.50;;;10.80;;
72095;SDS011;59968;51.084;16.748;2022-10-04T21:33:56;19.10;;;11.00;;
72095;SDS011;59968;51.084;16.748;2022-10-04T21:36:26;18.00;;;10.70;;
72095;SDS011;59968;51.084;16.748;2022-10-04T21:38:55;20.60;;;10.20;;
72095;SDS011;59968;51.084;16.748;2022-10-04T21:41:24;18.30;;;10.60;;
72095;SDS011;59968;51.084;16.748;2022-10-04T21:43:55;21.40;;;11.20;;
72095;SDS011;59968;51.084;16.748;2022-10-04T21:46:25;22.50;;;11.10;;
72095;SDS011;59968;51.084;16.748;2022-10-04T21:48:55;20.50;;;11.00;;
72095;SDS011;59968;51.084;16.748;2022-10-04T21:51:29;20.20;;;9.90;;
72095;SDS011;59968;51.084;16.748;2022-10-04T21:54:04;19.10;;;10.20;;
72095;SDS011;59968;51.084;16.748;2022-10-04T21:56:33;20.60;;;10.60;;
72095;SDS011;59968;51.084;16.748;2022-10-04T21:59:02;18.90;;;10.10;;
72095;SDS011;59968;51.084;16.748;2022-10-04T22:05:13;18.70;;;9.70;;
72095;SDS011;59968;51.084;16.748;2022-10-04T22:07:42;17.20;;;9.90;;
72095;SDS011;59968;51.084;16.748;2022-10-04T22:10:11;19.60;;;10.30;;
72095;SDS011;59968;51.084;16.748;2022-10-04T22:12:39;17.10;;;10.00;;
72095;SDS011;59968;51.084;16.748;2022-10-04T22:15:08;19.70;;;9.80;;
72095;SDS011;59968;51.084;16.748;2022-10-04T22:17:37;18.10;;;10.40;;
72095;SDS011;59968;51.084;16.748;2022-10-04T22:20:07;17.70;;;9.50;;
72095;SDS011;59968;51.084;16.748;2022-10-04T22:22:36;16.30;;;9.50;;
72095;SDS011;59968;51.084;16.748;2022-10-04T22:25:17;16.50;;;8.80;;
72095;SDS011;59968;51.084;16.748;2022-10-04T22:27:48;17.10;;;8.80;;
72095;SDS011;59968;51.084;16.748;2022-10-04T22:30:17;17.50;;;9.20;;
72095;SDS011;59968;51.084;16.748;2022-10-04T22:32:49;16.50;;;9.60;;
72095;SDS011;59968;51.084;16.748;2022-10-04T22:35:18;17.30;;;9.20;;
72095;SDS011;59968;51.084;16.748;2022-10-04T22:37:47;16.80;;;9.80;;
72095;SDS011;59968;51.084;16.748;2022-10-04T22:40:18;16.40;;;9.30;;
72095;SDS011;59968;51.084;16.748;2022-10-04T22:42:56;16.10;;;9.00;;
72095;SDS011;59968;51.084;16.748;2022-10-04T22:45:28;20.20;;;9.50;;
72095;SDS011;59968;51.084;16.748;2022-10-04T22:48:00;15.50;;;9.30;;
72095;SDS011;59968;51.084;16.748;2022-10-04T22:50:38;17.00;;;8.80;;
72095;SDS011;59968;51.084;16.748;2022-10-04T22:53:15;17.00;;;9.10;;
72095;SDS011;59968;51.084;16.748;2022-10-04T22:55:53;18.90;;;9.20;;
72095;SDS011;59968;51.084;16.748;2022-10-04T22:58:23;17.60;;;9.80;;
72095;SDS011;59968;51.084;16.748;2022-10-04T23:00:53;16.20;;;9.10;;
72095;SDS011;59968;51.084;16.748;2022-10-04T23:03:29;15.50;;;8.80;;
72095;SDS011;59968;51.084;16.748;2022-10-04T23:05:59;17.50;;;9.80;;
72095;SDS011;59968;51.084;16.748;2022-10-04T23:08:29;15.90;;;9.10;;
72095;SDS011;59968;51.084;16.748;2022-10-04T23:10:58;16.70;;;9.00;;
72095;SDS011;59968;51.084;16.748;2022-10-04T23:13:27;15.50;;;8.80;;
72095;SDS011;59968;51.084;16.748;2022-10-04T23:15:59;15.20;;;8.10;;
72095;SDS011;59968;51.084;16.748;2022-10-04T23:18:37;16.50;;;8.20;;
72095;SDS011;59968;51.084;16.748;2022-10-04T23:21:14;16.20;;;7.80;;
72095;SDS011;59968;51.084;16.748;2022-10-04T23:23:47;14.70;;;7.50;;
72095;SDS011;59968;51.084;16.748;2022-10-04T23:26:21;14.60;;;8.00;;
72095;SDS011;59968;51.084;16.748;2022-10-04T23:28:51;16.50;;;8.20;;
72095;SDS011;59968;51.084;16.748;2022-10-04T23:31:24;13.40;;;7.10;;
72095;SDS011;59968;51.084;16.748;2022-10-04T23:33:54;13.40;;;6.70;;
72095;SDS011;59968;51.084;16.748;2022-10-04T23:36:23;13.20;;;7.00;;
72095;SDS011;59968;51.084;16.748;2022-10-04T23:38:57;13.00;;;6.40;;
72095;SDS011;59968;51.084;16.748;2022-10-04T23:41:27;13.30;;;6.60;;
72095;SDS011;59968;51.084;16.748;2022-10-04T23:43:56;12.40;;;6.90;;
72095;SDS011;59968;51.084;16.748;2022-10-04T23:46:24;12.90;;;6.70;;
72095;SDS011;59968;51.084;16.748;2022-10-04T23:48:52;14.70;;;7.10;;
72095;SDS011;59968;51.084;16.748;2022-10-04T23:51:20;14.80;;;7.10;;
72095;SDS011;59968;51.084;16.748;2022-10-04T23:53:49;14.50;;;7.50;;
72095;SDS011;59968;51.084;16.748;2022-10-04T23:56:19;14.20;;;7.20;;
72095;SDS011;59968;51.084;16.748;2022-10-04T23:58:50;15.20;;;7.40;;
